Time;durP1;ratioP1;P1;durP2;ratioP2;P2;SDS_P1;SDS_P2;PMS_P1;PMS_P2;Temp;Humidity;BMP_temperature;BMP_pressure;BME280_temperature;BME280_humidity;BME280_pressure;Samples;Min_cycle;Max_cycle;Signal;HPM_P1;HPM_P2
2022/03/30 00:00:06;;;;;;;;;59.33;45.33;;;;;12.74;100.00;100111.50;5020988;28;45385;-83
2022/03/30 00:02:32;;;;;;;;;59.67;47.67;;;;;12.71;100.00;100109.94;5019293;28;44949;-83
2022/03/30 00:04:57;;;;;;;;;58.00;43.67;;;;;12.69;100.00;100114.56;5002609;28;45155;-82
2022/03/30 00:07:23;;;;;;;;;56.67;44.67;;;;;12.66;100.00;100109.47;5004845;28;44761;-81
2022/03/30 00:09:49;;;;;;;;;63.00;47.00;;;;;12.63;100.00;100106.25;5022718;28;45459;-83
2022/03/30 00:12:15;;;;;;;;;59.33;46.33;;;;;12.59;100.00;100108.34;5021834;28;45447;-81
2022/03/30 00:14:40;;;;;;;;;56.00;44.00;;;;;12.55;100.00;100099.75;5001885;28;45603;-82
2022/03/30 00:17:06;;;;;;;;;56.33;46.33;;;;;12.52;100.00;100101.81;5018252;28;44829;-82
2022/03/30 00:19:31;;;;;;;;;62.33;46.00;;;;;12.47;100.00;100099.53;5018194;28;44789;-83
2022/03/30 00:21:57;;;;;;;;;54.33;43.33;;;;;12.44;100.00;100102.50;5018630;28;45405;-81
2022/03/30 00:24:23;;;;;;;;;59.33;47.00;;;;;12.40;100.00;100095.72;5000398;28;45327;-82
2022/03/30 00:26:49;;;;;;;;;64.33;47.67;;;;;12.38;100.00;100100.34;5017563;28;44826;-83
2022/03/30 00:29:14;;;;;;;;;61.67;46.33;;;;;12.35;100.00;100098.78;5017715;28;45266;-83
2022/03/30 00:31:40;;;;;;;;;61.67;49.33;;;;;12.32;100.00;100095.53;5017740;28;45359;-82
2022/03/30 00:34:06;;;;;;;;;61.33;48.67;;;;;12.27;100.00;100103.06;5020178;28;45283;-82
2022/03/30 00:36:31;;;;;;;;;57.00;47.00;;;;;12.22;100.00;100098.13;5024737;28;45279;-82
2022/03/30 00:38:57;;;;;;;;;64.33;50.00;;;;;12.20;100.00;100093.91;5022128;28;44641;-81
2022/03/30 00:41:22;;;;;;;;;59.00;46.67;;;;;12.16;100.00;100093.31;5016497;28;44862;-82
2022/03/30 00:43:48;;;;;;;;;57.67;46.00;;;;;12.15;100.00;100090.78;5016992;28;45326;-82
2022/03/30 00:46:15;;;;;;;;;67.00;49.00;;;;;12.13;100.00;100096.22;5016501;28;45243;-80
2022/03/30 00:48:42;;;;;;;;;63.33;49.33;;;;;12.09;100.00;100078.84;5017682;28;44683;-82
2022/03/30 00:51:08;;;;;;;;;60.33;48.00;;;;;12.08;100.00;100077.13;5017560;28;45587;-81
2022/03/30 00:53:33;;;;;;;;;63.00;49.00;;;;;12.08;100.00;100077.13;4998557;28;46765;-82
2022/03/30 00:55:59;;;;;;;;;62.67;50.00;;;;;12.05;100.00;100070.25;5017011;28;45513;-82
2022/03/30 00:58:26;;;;;;;;;63.00;48.00;;;;;12.04;100.00;100067.75;5016823;28;45437;-81
2022/03/30 01:00:52;;;;;;;;;64.00;51.00;;;;;12.03;100.00;100055.38;5017508;28;44794;-82
2022/03/30 01:03:19;;;;;;;;;69.00;51.33;;;;;12.08;100.00;100055.81;5016545;28;45346;-83
2022/03/30 01:05:44;;;;;;;;;62.00;49.67;;;;;12.10;100.00;100059.22;5017800;28;45604;-81
2022/03/30 01:08:09;;;;;;;;;65.00;50.33;;;;;12.09;100.00;100052.22;5017339;28;44744;-82
2022/03/30 01:10:35;;;;;;;;;67.33;51.67;;;;;12.08;100.00;100045.19;5018628;28;44783;-81
2022/03/30 01:13:02;;;;;;;;;60.33;49.00;;;;;12.09;100.00;100049.56;5023818;28;45535;-82
2022/03/30 01:15:28;;;;;;;;;67.00;52.00;;;;;12.11;100.00;100039.59;5026742;28;44748;-81
2022/03/30 01:17:54;;;;;;;;;67.67;51.33;;;;;12.11;100.00;100038.75;5028141;28;44779;-80
2022/03/30 01:20:22;;;;;;;;;65.67;51.33;;;;;12.12;100.00;100043.13;5020618;28;45508;-81
2022/03/30 01:22:48;;;;;;;;;65.67;51.00;;;;;12.14;100.00;100041.19;5020402;28;45115;-80
2022/03/30 01:25:14;;;;;;;;;67.00;51.00;;;;;12.17;100.00;100040.91;5022492;28;45316;-81
2022/03/30 01:27:39;;;;;;;;;64.67;50.67;;;;;12.20;100.00;100041.50;5019842;28;45534;-81
2022/03/30 01:32:55;;;;;;;;;65.33;51.33;;;;;12.25;100.00;100038.44;5016815;28;45406;-82
2022/03/30 01:35:21;;;;;;;;;66.67;50.33;;;;;12.24;100.00;100034.94;5016332;28;44870;-82
2022/03/30 01:37:46;;;;;;;;;65.67;51.00;;;;;12.21;100.00;100024.53;5016681;28;44715;-80
2022/03/30 01:40:12;;;;;;;;;67.00;52.67;;;;;12.24;100.00;100026.09;5016680;28;44905;-81
2022/03/30 01:42:38;;;;;;;;;67.00;53.00;;;;;12.25;100.00;100020.63;5019540;28;45426;-81
2022/03/30 01:45:04;;;;;;;;;62.67;48.33;;;;;12.25;100.00;100017.13;5022297;28;45487;-82
2022/03/30 01:47:30;;;;;;;;;67.67;51.67;;;;;12.30;100.00;100022.91;5018368;28;45611;-82
2022/03/30 01:49:55;;;;;;;;;71.00;52.00;;;;;12.29;100.00;100019.41;5017039;28;44823;-81
2022/03/30 01:52:21;;;;;;;;;69.50;52.00;;;;;12.28;100.00;100012.41;5016396;28;46118;-82
2022/03/30 01:54:48;;;;;;;;;64.00;48.67;;;;;12.29;100.00;100018.56;4986063;28;45498;-80
2022/03/30 01:57:14;;;;;;;;;66.00;53.00;;;;;12.25;100.00;100011.81;4994666;28;45417;-80
2022/03/30 01:59:42;;;;;;;;;63.00;50.00;;;;;12.23;100.00;100022.59;4995922;28;44911;-81
2022/03/30 02:02:08;;;;;;;;;69.00;52.67;;;;;12.21;100.00;100013.88;4995560;28;46358;-81
2022/03/30 02:04:35;;;;;;;;;66.67;51.00;;;;;12.17;100.00;100004.47;4995755;28;45501;-82
2022/03/30 02:07:02;;;;;;;;;61.33;50.00;;;;;12.13;100.00;100002.19;5000626;28;45362;-81
2022/03/30 02:09:27;;;;;;;;;65.67;52.00;;;;;12.03;100.00;99994.13;5008246;28;45397;-81
2022/03/30 02:11:54;;;;;;;;;73.67;61.33;;;;;11.97;100.00;100000.00;5007700;28;45174;-82
2022/03/30 02:14:20;;;;;;;;;63.00;48.67;;;;;11.91;100.00;99996.03;5006699;28;45409;-81
2022/03/30 02:16:46;;;;;;;;;66.33;51.00;;;;;11.85;100.00;99996.56;5004052;28;44900;-80
2022/03/30 02:19:11;;;;;;;;;72.67;55.33;;;;;11.81;100.00;100000.41;5002992;28;45342;-81
2022/03/30 02:21:38;;;;;;;;;68.00;51.33;;;;;11.77;100.00;99994.50;4996350;28;45485;-81
2022/03/30 02:24:04;;;;;;;;;63.67;51.33;;;;;11.72;100.00;99983.41;4998329;28;44869;-81
2022/03/30 02:26:30;;;;;;;;;68.33;53.00;;;;;11.68;100.00;99989.94;4998899;28;44847;-81
2022/03/30 02:28:55;;;;;;;;;67.67;52.00;;;;;11.64;100.00;99977.88;4999172;28;45444;-81
2022/03/30 02:31:22;;;;;;;;;72.00;54.00;;;;;11.61;100.00;99982.63;4998984;28;45378;-80
2022/03/30 02:33:49;;;;;;;;;70.33;57.00;;;;;11.57;100.00;99971.38;4999369;28;44921;-81
2022/03/30 02:36:15;;;;;;;;;71.67;55.00;;;;;11.55;100.00;99973.31;4999926;28;45432;-81
2022/03/30 02:38:42;;;;;;;;;69.67;51.00;;;;;11.51;100.00;99975.41;5000166;28;44799;-81
2022/03/30 02:41:08;;;;;;;;;68.33;52.00;;;;;11.49;100.00;99974.66;4999095;28;45170;-82
2022/03/30 02:43:34;;;;;;;;;72.67;53.00;;;;;11.47;100.00;99973.13;4998919;28;45217;-81
2022/03/30 02:46:00;;;;;;;;;73.00;58.00;;;;;11.44;100.00;99971.53;4997620;28;44808;-81
2022/03/30 02:48:28;;;;;;;;;70.67;53.00;;;;;11.43;100.00;99971.69;4998564;28;45299;-81
2022/03/30 02:51:00;;;;;;;;;68.33;52.00;;;;;11.43;100.00;99971.69;4998783;28;46178;-81
2022/03/30 02:53:25;;;;;;;;;66.67;50.33;;;;;11.41;100.00;99968.28;4998605;28;45378;-81
2022/03/30 02:55:51;;;;;;;;;68.00;54.33;;;;;11.40;100.00;99962.13;4999850;28;44715;-80
2022/03/30 02:58:19;;;;;;;;;72.00;57.67;;;;;11.40;100.00;99962.13;5003023;28;44903;-81
2022/03/30 03:00:44;;;;;;;;;69.67;53.00;;;;;11.42;100.00;99962.03;4985492;28;45511;-81
2022/03/30 03:03:10;;;;;;;;;72.33;57.00;;;;;11.43;100.00;99961.03;5001001;28;45244;-81
2022/03/30 03:05:36;;;;;;;;;71.67;58.00;;;;;11.44;100.00;99963.56;4999602;28;45196;-80
2022/03/30 03:08:04;;;;;;;;;63.33;51.00;;;;;11.45;100.00;99959.09;4999222;28;44822;-80
2022/03/30 03:10:31;;;;;;;;;69.00;53.67;;;;;11.48;100.00;99964.16;4980244;28;46410;-80
2022/03/30 03:12:56;;;;;;;;;72.33;55.67;;;;;11.51;100.00;99966.59;4998324;28;44775;-80
2022/03/30 03:15:22;;;;;;;;;71.67;54.00;;;;;11.55;100.00;99970.66;4998267;28;44806;-81
2022/03/30 03:17:48;;;;;;;;;68.33;52.33;;;;;11.56;100.00;99970.53;4983789;28;45324;-81
2022/03/30 03:20:14;;;;;;;;;65.33;51.00;;;;;11.58;100.00;99967.75;5004836;28;46140;-81
2022/03/30 03:22:41;;;;;;;;;70.00;53.00;;;;;11.61;100.00;99959.53;5004785;28;45223;-80
2022/03/30 03:25:08;;;;;;;;;65.67;52.33;;;;;11.63;100.00;99952.25;4999786;28;45507;-81
2022/03/30 03:27:33;;;;;;;;;68.00;52.00;;;;;11.64;100.00;99953.91;4999235;28;44863;-81
2022/03/30 03:29:59;;;;;;;;;67.33;52.00;;;;;11.67;100.00;99951.00;4981615;28;45758;-81
2022/03/30 03:32:25;;;;;;;;;69.33;52.00;;;;;11.70;100.00;99948.09;5000537;28;44794;-80
2022/03/30 03:34:50;;;;;;;;;69.33;52.00;;;;;11.71;100.00;99941.81;4980908;28;45477;-81
2022/03/30 03:37:16;;;;;;;;;68.67;54.00;;;;;11.69;100.00;99934.91;4999657;28;45415;-81
2022/03/30 03:39:43;;;;;;;;;69.00;56.33;;;;;11.65;100.00;99936.97;4997894;28;45394;-81
2022/03/30 03:42:08;;;;;;;;;67.33;51.00;;;;;11.65;100.00;99938.81;4998063;28;45369;-81
2022/03/30 03:44:34;;;;;;;;;68.00;50.67;;;;;11.64;100.00;99942.44;4998016;28;45318;-81
2022/03/30 03:46:59;;;;;;;;;67.00;53.67;;;;;11.68;100.00;99943.88;4999526;28;45525;-80
2022/03/30 03:49:24;;;;;;;;;65.33;51.67;;;;;11.69;100.00;99943.72;4983599;28;45585;-80
2022/03/30 03:51:50;;;;;;;;;67.33;51.33;;;;;11.73;100.00;99941.66;5000871;28;45371;-81
2022/03/30 03:54:15;;;;;;;;;71.00;54.67;;;;;11.73;100.00;99941.66;5005067;28;44823;-81
2022/03/30 03:56:41;;;;;;;;;65.67;52.00;;;;;11.75;100.00;99943.25;5019966;28;44876;-80
2022/03/30 03:59:06;;;;;;;;;68.00;52.67;;;;;11.75;100.00;99939.75;5004397;28;45931;-80
2022/03/30 04:01:32;;;;;;;;;73.67;55.67;;;;;11.72;100.00;99934.66;5018109;28;45215;-81
2022/03/30 04:03:58;;;;;;;;;70.33;58.33;;;;;11.70;100.00;99932.16;5018580;28;44636;-81
2022/03/30 04:06:23;;;;;;;;;74.00;55.67;;;;;11.71;100.00;99935.66;5017549;28;44917;-81
2022/03/30 04:08:49;;;;;;;;;72.67;57.67;;;;;11.70;100.00;99929.47;4999328;28;45349;-81
2022/03/30 04:11:14;;;;;;;;;78.00;63.67;;;;;11.69;100.00;99935.75;5017285;28;44773;-82
2022/03/30 04:13:40;;;;;;;;;73.67;59.33;;;;;11.66;100.00;99936.03;5017449;28;45425;-81
2022/03/30 04:16:06;;;;;;;;;74.67;56.67;;;;;11.68;100.00;99939.41;4999825;28;45564;-81
2022/03/30 04:18:31;;;;;;;;;75.00;59.67;;;;;11.71;100.00;99935.66;4999389;28;46238;-81
2022/03/30 04:20:56;;;;;;;;;76.67;56.33;;;;;11.73;100.00;99931.03;5020754;28;45314;-81
2022/03/30 04:23:22;;;;;;;;;76.67;67.67;;;;;11.75;100.00;99942.41;5006209;28;45468;-81
2022/03/30 04:25:47;;;;;;;;;73.00;53.67;;;;;11.78;100.00;99936.81;5024397;28;45405;-82
2022/03/30 04:28:17;;;;;;;;;68.00;55.67;;;;;11.79;100.00;99927.84;5017753;28;45477;-81
2022/03/30 04:30:42;;;;;;;;;72.67;59.33;;;;;11.80;100.00;99925.06;5017327;28;45161;-82
2022/03/30 04:33:09;;;;;;;;;71.67;56.67;;;;;11.82;100.00;99928.47;5002777;28;45501;-81
2022/03/30 04:35:35;;;;;;;;;73.33;59.33;;;;;11.87;100.00;99929.88;5004074;28;45421;-82
2022/03/30 04:38:01;;;;;;;;;72.33;58.00;;;;;11.88;100.00;99919.09;5023251;28;45386;-81
2022/03/30 04:40:28;;;;;;;;;73.33;56.67;;;;;11.90;100.00;99913.66;5022117;28;44892;-80
2022/03/30 04:42:54;;;;;;;;;69.67;58.00;;;;;11.90;100.00;99911.84;5017467;28;44814;-82
2022/03/30 04:45:20;;;;;;;;;72.67;54.33;;;;;11.91;100.00;99920.69;5016932;28;44782;-81
2022/03/30 04:47:46;;;;;;;;;72.67;60.67;;;;;11.90;100.00;99914.50;5016534;28;45306;-80
2022/03/30 04:50:13;;;;;;;;;67.00;53.33;;;;;11.90;100.00;99908.34;5018295;28;45328;-81
2022/03/30 04:52:39;;;;;;;;;71.33;57.00;;;;;11.88;100.00;99903.13;5020731;28;45248;-81
2022/03/30 04:55:07;;;;;;;;;73.00;62.75;;;;;11.88;100.00;99904.97;5017435;28;44861;-82
2022/03/30 04:57:32;;;;;;;;;71.67;59.00;;;;;11.90;100.00;99900.38;5017672;28;45410;-82
2022/03/30 04:59:57;;;;;;;;;74.33;64.00;;;;;11.90;100.00;99903.03;5016722;28;45416;-81
2022/03/30 05:02:23;;;;;;;;;78.33;63.00;;;;;11.91;100.00;99897.56;5016767;28;45440;-81
2022/03/30 05:04:49;;;;;;;;;76.00;63.00;;;;;11.92;100.00;99896.56;4997876;28;45362;-83
2022/03/30 05:07:15;;;;;;;;;72.33;58.33;;;;;11.93;100.00;99903.59;5016298;28;45390;-82
2022/03/30 05:09:41;;;;;;;;;73.67;59.33;;;;;11.93;100.00;99895.59;5017041;28;45223;-81
2022/03/30 05:12:07;;;;;;;;;76.00;67.00;;;;;11.93;100.00;99898.25;5015506;28;44835;-81
2022/03/30 05:14:35;;;;;;;;;76.00;60.33;;;;;11.94;100.00;99891.09;5016110;28;44885;-82
2022/03/30 05:17:01;;;;;;;;;75.75;62.00;;;;;11.93;100.00;99892.94;4999371;28;47276;-82
2022/03/30 05:19:27;;;;;;;;;70.33;58.33;;;;;11.93;100.00;99890.28;5020216;28;45341;-81
2022/03/30 05:21:52;;;;;;;;;70.00;53.67;;;;;11.95;100.00;99893.66;5019282;28;44912;-82
2022/03/30 05:24:18;;;;;;;;;74.67;66.00;;;;;11.94;100.00;99897.31;5018805;28;44806;-83
2022/03/30 05:26:45;;;;;;;;;75.33;63.67;;;;;11.95;100.00;99891.00;5019753;28;45294;-81
2022/03/30 05:29:10;;;;;;;;;73.33;64.33;;;;;11.96;100.00;99900.66;5023261;28;44825;-81
2022/03/30 05:31:35;;;;;;;;;76.67;64.00;;;;;11.97;100.00;99893.53;5017909;28;45329;-81
2022/03/30 05:34:01;;;;;;;;;76.00;66.25;;;;;11.97;100.00;99896.19;5017452;28;45271;-81
2022/03/30 05:36:26;;;;;;;;;80.00;65.67;;;;;11.96;100.00;99895.34;5017661;28;45319;-81
2022/03/30 05:38:51;;;;;;;;;73.00;61.67;;;;;11.94;100.00;99891.97;4999882;28;45268;-81
2022/03/30 05:41:18;;;;;;;;;73.00;58.33;;;;;11.95;100.00;99903.47;5018563;28;45321;-84
2022/03/30 05:43:43;;;;;;;;;72.67;60.33;;;;;11.97;100.00;99905.00;5021149;28;44763;-84
2022/03/30 05:46:09;;;;;;;;;76.33;64.67;;;;;11.98;100.00;99900.53;5020719;28;45187;-85
2022/03/30 05:48:35;;;;;;;;;74.50;65.25;;;;;11.98;100.00;99896.03;5023061;28;45005;-85
2022/03/30 05:51:00;;;;;;;;;73.50;62.50;;;;;12.00;100.00;99898.59;5000003;28;44717;-85
2022/03/30 05:53:26;;;;;;;;;76.75;65.50;;;;;12.02;100.00;99893.97;5017162;28;45269;-84
2022/03/30 05:55:53;;;;;;;;;76.33;64.67;;;;;12.03;100.00;99899.16;5021518;28;45361;-86
2022/03/30 05:58:18;;;;;;;;;76.00;63.75;;;;;12.05;100.00;99905.19;4984587;28;44878;-83
2022/03/30 06:00:44;;;;;;;;;74.75;63.50;;;;;12.05;100.00;99899.03;5004733;28;44882;-85
2022/03/30 06:03:10;;;;;;;;;76.67;62.33;;;;;12.07;100.00;99910.38;5009329;28;44807;-85
2022/03/30 06:05:37;;;;;;;;;73.67;59.67;;;;;12.09;100.00;99903.13;5014576;28;44925;-84
2022/03/30 06:08:03;;;;;;;;;73.75;65.00;;;;;12.09;100.00;99911.13;5006515;28;44732;-84
2022/03/30 06:10:29;;;;;;;;;79.50;71.50;;;;;12.08;100.00;99907.56;5004948;28;44792;-84
2022/03/30 06:12:56;;;;;;;;;74.67;64.33;;;;;12.12;100.00;99917.97;5022600;28;44864;-86
2022/03/30 06:15:22;;;;;;;;;73.00;57.25;;;;;12.14;100.00;99911.56;5029077;28;45417;-86
2022/03/30 06:17:48;;;;;;;;;78.67;64.33;;;;;12.15;100.00;99913.22;5017309;28;44732;-85
2022/03/30 06:20:14;;;;;;;;;78.75;67.00;;;;;12.17;100.00;99907.75;5011812;28;44689;-85
2022/03/30 06:22:41;;;;;;;;;74.67;62.00;;;;;12.21;100.00;99914.50;5030181;28;44914;-84
2022/03/30 06:25:07;;;;;;;;;78.00;65.67;;;;;12.23;100.00;99915.22;5011062;28;46623;-85
2022/03/30 06:27:33;;;;;;;;;76.00;61.67;;;;;12.27;100.00;99913.97;5028587;28;45432;-84
2022/03/30 06:29:58;;;;;;;;;71.25;60.00;;;;;12.29;100.00;99922.69;5028646;28;44775;-84
2022/03/30 06:32:24;;;;;;;;;73.75;63.50;;;;;12.31;100.00;99921.56;5008303;28;44913;-85
2022/03/30 06:34:49;;;;;;;;;74.75;65.50;;;;;12.37;100.00;99925.50;5008731;28;45254;-84
2022/03/30 06:37:14;;;;;;;;;76.75;64.50;;;;;12.42;100.00;99915.28;4991450;28;45284;-84
2022/03/30 06:39:40;;;;;;;;;72.67;61.67;;;;;12.44;100.00;99921.34;5003747;28;44846;-85
2022/03/30 06:42:06;;;;;;;;;75.00;65.00;;;;;12.47;100.00;99920.22;5004272;28;44842;-86
2022/03/30 06:44:32;;;;;;;;;76.33;62.00;;;;;12.51;100.00;99916.31;4994951;28;46062;-87
2022/03/30 06:46:58;;;;;;;;;73.67;60.67;;;;;12.56;100.00;99916.75;5020469;28;45424;-86
2022/03/30 06:49:23;;;;;;;;;77.33;64.00;;;;;12.60;100.00;99920.81;5021085;28;44794;-87
2022/03/30 06:51:48;;;;;;;;;74.33;64.00;;;;;12.63;100.00;99917.06;5000258;28;45048;-86
2022/03/30 06:54:14;;;;;;;;;81.33;68.67;;;;;12.67;100.00;99923.78;4988840;28;45056;-86
2022/03/30 06:56:39;;;;;;;;;76.00;63.50;;;;;12.68;100.00;99920.16;5018862;28;45168;-86
2022/03/30 06:59:05;;;;;;;;;76.67;68.33;;;;;12.68;100.00;99917.50;5002533;28;44845;-85
2022/03/30 07:01:30;;;;;;;;;75.00;60.67;;;;;12.71;100.00;99923.38;5004243;28;44865;-84
2022/03/30 07:03:56;;;;;;;;;80.67;65.33;;;;;12.71;100.00;99923.38;5024599;28;45113;-84
2022/03/30 07:06:21;;;;;;;;;69.33;60.33;;;;;12.72;100.00;99926.91;5025641;28;45216;-85
2022/03/30 07:11:31;;;;;;;;;71.33;56.67;;;;;12.78;100.00;99919.19;5008309;28;44741;-84
2022/03/30 07:13:58;;;;;;;;;74.33;58.00;;;;;12.79;100.00;99920.03;5012250;28;45386;-86
2022/03/30 07:16:24;;;;;;;;;75.67;66.33;;;;;12.81;100.00;99912.72;5025253;28;44835;-85
2022/03/30 07:18:51;;;;;;;;;77.67;69.67;;;;;12.81;100.00;99921.59;4999520;28;45516;-86
2022/03/30 07:21:16;;;;;;;;;72.33;62.00;;;;;12.82;100.00;99915.28;4999293;28;44822;-85
2022/03/30 07:23:42;;;;;;;;;78.00;66.67;;;;;12.80;100.00;99914.56;5015071;28;46862;-85
2022/03/30 07:26:08;;;;;;;;;78.33;65.00;;;;;12.79;100.00;99920.03;4999980;28;45256;-86
2022/03/30 07:28:35;;;;;;;;;78.33;65.33;;;;;12.78;100.00;99916.53;4999236;28;45180;-85
2022/03/30 07:31:06;;;;;;;;;77.33;60.00;;;;;12.73;100.00;99921.44;5032112;28;45382;-87
2022/03/30 07:33:33;;;;;;;;;76.50;67.50;;;;;12.58;100.00;99912.13;5024154;28;45646;-85
2022/03/30 07:36:00;;;;;;;;;77.00;69.00;;;;;12.40;100.00;99906.59;5026719;28;44791;-85
2022/03/30 07:38:25;;;;;;;;;78.33;64.67;;;;;12.30;100.00;99911.06;5012710;28;44724;-83
2022/03/30 07:40:52;;;;;;;;;68.67;54.00;;;;;12.23;100.00;99916.09;4984991;28;45229;-85
2022/03/30 07:43:18;;;;;;;;;75.25;69.50;;;;;12.21;100.00;99918.03;5005454;28;45309;-85
2022/03/30 07:45:44;;;;;;;;;73.25;67.00;;;;;12.22;100.00;99921.53;5023180;28;45274;-85
2022/03/30 07:48:10;;;;;;;;;73.00;59.25;;;;;12.10;100.00;99918.13;5019490;28;44741;-86
2022/03/30 07:50:36;;;;;;;;;72.00;62.75;;;;;11.99;100.00;99913.72;5020626;28;44740;-86
2022/03/30 07:53:03;;;;;;;;;76.25;65.25;;;;;11.97;100.00;99925.47;5021956;28;45426;-87
2022/03/30 07:55:28;;;;;;;;;76.25;64.75;;;;;11.96;100.00;99923.78;5023153;28;45468;-86
2022/03/30 07:57:55;;;;;;;;;77.50;70.00;;;;;11.87;100.00;99905.94;5004427;28;45478;-88
2022/03/30 08:00:29;;;;;;;;;75.25;63.50;;;;;11.87;100.00;99927.22;5009129;28;44887;-90
2022/03/30 08:02:55;;;;;;;;;87.25;76.50;;;;;11.87;100.00;99917.44;4996896;28;46731;-89
2022/03/30 08:08:17;;;;;;;;;79.50;68.50;;;;;11.85;100.00;99929.19;4976336;28;44825;-89
2022/03/30 08:10:57;;;;;;;;;77.25;66.00;;;;;11.79;100.00;99926.00;4990299;28;45250;-87
2022/03/30 08:13:31;;;;;;;;;83.25;72.00;;;;;11.80;100.00;99932.22;5007098;28;45402;-88
2022/03/30 08:16:32;;;;;;;;;78.25;69.75;;;;;11.70;100.00;99940.13;4980123;28;44807;-88
2022/03/30 08:19:14;;;;;;;;;80.50;67.25;;;;;11.62;100.00;99939.91;4972940;28;44792;-88
2022/03/30 08:32:19;;;;;;;;;;;;;;;;;;;;;
2022/03/30 08:35:25;;;;;;;;;;;;;;;;;;;;;
2022/03/30 08:53:20;;;;;;;;;77.25;68.50;;;;;11.04;100.00;99956.22;4762895;29;45543;-87
2022/03/30 08:59:37;;;;;;;;;81.00;71.50;;;;;11.13;100.00;99951.13;4712098;30;44786;-87
2022/03/30 09:02:03;;;;;;;;;78.50;70.00;;;;;11.16;100.00;99953.53;4691418;30;45504;-88
2022/03/30 09:08:13;;;;;;;;;80.25;67.00;;;;;11.27;100.00;99950.84;4700274;30;45487;-86
2022/03/30 09:11:27;;;;;;;;;;;;;;;;;;;;;
2022/03/30 09:14:20;;;;;;;;;81.00;67.75;;;;;11.42;100.00;99952.22;4689150;30;69265;-86
2022/03/30 09:17:06;;;;;;;;;76.50;59.75;;;;;11.46;100.00;99955.44;4730757;29;45629;-85
2022/03/30 09:20:02;;;;;;;;;73.50;56.00;;;;;11.53;100.00;99954.81;4779771;29;44999;-87
2022/03/30 09:22:52;;;;;;;;;79.50;69.25;;;;;11.63;100.00;99956.72;4775601;29;44903;-85
2022/03/30 09:26:02;;;;;;;;;77.75;66.50;;;;;11.64;100.00;99947.75;4779185;29;44923;-85
2022/03/30 09:29:05;;;;;;;;;77.33;67.33;;;;;11.72;100.00;99947.97;4740496;29;45588;-85
2022/03/30 09:31:43;;;;;;;;;75.67;64.67;;;;;11.89;100.00;99946.56;4792083;29;44797;-85
2022/03/30 09:35:27;;;;;;;;;;;;;;;;;;;;;
2022/03/30 10:08:38;;;;;;;;;84.33;68.00;;;;;13.75;100.00;99921.09;4837500;29;45372;-87
2022/03/30 10:11:04;;;;;;;;;81.67;65.67;;;;;13.80;100.00;99916.16;4873184;29;45213;-88
2022/03/30 10:13:29;;;;;;;;;85.00;63.33;;;;;13.71;100.00;99914.34;4852564;29;45220;-88
2022/03/30 10:15:55;;;;;;;;;80.67;64.33;;;;;13.63;100.00;99913.25;4864994;29;44876;-88
2022/03/30 10:18:38;;;;;;;;;81.67;64.33;;;;;13.67;100.00;99912.94;4890704;29;45000;-88
2022/03/30 10:21:22;;;;;;;;;80.33;61.67;;;;;13.65;100.00;99907.75;4867514;29;45409;-87
2022/03/30 10:24:34;;;;;;;;;83.00;65.33;;;;;13.68;100.00;99901.28;4892238;28;44860;-87
2022/03/30 10:27:37;;;;;;;;;75.33;53.33;;;;;13.73;100.00;99899.00;4979770;28;44866;-89
2022/03/30 10:30:30;;;;;;;;;82.67;62.00;;;;;13.74;100.00;99898.06;4982876;28;46871;-89
2022/03/30 10:37:43;;;;;;;;;75.00;57.00;;;;;13.60;100.00;99894.84;4902118;28;45356;-87
2022/03/30 10:40:39;;;;;;;;;77.00;61.00;;;;;13.68;100.00;99885.25;4905870;29;45555;-87
2022/03/30 10:47:24;;;;;;;;;;;;;;;;;;;;;
2022/03/30 10:57:19;;;;;;;;;;;;;;;;;;;;;
2022/03/30 11:45:47;;;;;;;;;59.33;47.00;;;;;14.45;100.00;99820.00;5009447;28;45232;-88
2022/03/30 11:48:55;;;;;;;;;;;;;;;;;;;;;
2022/03/30 11:52:12;;;;;;;;;69.67;54.33;;;;;14.74;100.00;99804.63;5029909;28;74340;-87
2022/03/30 11:58:53;;;;;;;;;65.33;50.33;;;;;14.96;100.00;99802.50;4974093;28;45453;-88
2022/03/30 12:08:00;;;;;;;;;62.67;47.33;;;;;15.05;100.00;99791.72;4871198;29;45401;-90
2022/03/30 12:10:37;;;;;;;;;66.33;49.67;;;;;15.31;100.00;99791.75;4877009;29;44776;-90
2022/03/30 12:13:08;;;;;;;;;57.67;47.67;;;;;15.48;100.00;99786.53;4859793;29;45213;-89
2022/03/30 12:15:37;;;;;;;;;63.67;49.33;;;;;15.77;100.00;99780.88;4856934;29;46595;-91
2022/03/30 12:18:05;;;;;;;;;65.33;50.00;;;;;16.14;100.00;99772.47;4857020;29;44837;-90
2022/03/30 12:20:34;;;;;;;;;57.67;46.67;;;;;16.63;100.00;99769.91;4873248;29;44851;-92
2022/03/30 12:23:10;;;;;;;;;65.00;49.33;;;;;17.11;100.00;99766.44;4868787;29;45386;-91
2022/03/30 12:25:44;;;;;;;;;65.33;52.00;;;;;17.38;100.00;99756.34;4871505;29;45198;-91
2022/03/30 12:28:09;;;;;;;;;64.67;50.67;;;;;17.50;100.00;99754.13;4878939;29;44795;-91
2022/03/30 12:30:40;;;;;;;;;63.33;48.33;;;;;17.59;100.00;99755.81;4876544;29;45275;-91
2022/03/30 12:33:11;;;;;;;;;61.33;48.00;;;;;17.52;100.00;99757.50;4872684;29;44901;-92
2022/03/30 12:35:40;;;;;;;;;61.33;49.00;;;;;17.39;100.00;99750.81;4856676;29;45446;-91
2022/03/30 12:38:11;;;;;;;;;64.67;49.00;;;;;17.28;100.00;99747.66;4888361;29;45438;-91
2022/03/30 12:40:40;;;;;;;;;68.33;51.00;;;;;17.40;100.00;99738.22;4925507;28;44793;-90
2022/03/30 12:43:07;;;;;;;;;65.33;51.00;;;;;17.58;100.00;99738.84;4920890;28;44924;-91
2022/03/30 12:45:46;;;;;;;;;65.00;48.00;;;;;17.84;100.00;99738.66;4990380;28;45165;-90
2022/03/30 12:48:12;;;;;;;;;63.00;52.33;;;;;17.73;100.00;99731.78;4999357;28;45324;-89
2022/03/30 12:50:42;;;;;;;;;71.33;55.33;;;;;17.57;100.00;99729.13;5013870;28;44995;-90
2022/03/30 12:53:20;;;;;;;;;69.67;52.33;;;;;17.21;100.00;99726.88;5033890;28;44786;-90
2022/03/30 12:55:51;;;;;;;;;69.67;54.00;;;;;16.84;100.00;99723.88;5013431;28;45369;-90
2022/03/30 12:58:20;;;;;;;;;70.33;53.67;;;;;16.79;100.00;99720.88;5009174;28;45401;-90
2022/03/30 13:00:54;;;;;;;;;64.67;51.00;;;;;16.79;100.00;99716.34;5005768;28;44737;-92
2022/03/30 13:03:29;;;;;;;;;60.67;48.67;;;;;16.82;100.00;99715.13;5017945;28;44865;-91
2022/03/30 13:06:19;;;;;;;;;66.33;48.67;;;;;16.99;100.00;99710.63;5022874;28;45377;-90
2022/03/30 13:09:06;;;;;;;;;59.33;45.33;;;;;17.21;100.00;99705.41;5007427;28;45292;-90
2022/03/30 13:11:31;;;;;;;;;54.33;42.00;;;;;17.29;100.00;99699.16;4990596;28;44892;-89
2022/03/30 13:13:58;;;;;;;;;52.67;44.00;;;;;17.10;100.00;99705.72;5009691;28;44954;-89
2022/03/30 13:16:30;;;;;;;;;53.67;44.00;;;;;16.80;100.00;99690.34;5027006;28;45279;-88
2022/03/30 13:19:11;;;;;;;;;62.00;45.67;;;;;16.57;100.00;99692.81;5013830;28;44816;-90
2022/03/30 13:21:46;;;;;;;;;54.00;43.33;;;;;16.44;100.00;99690.66;5016084;28;44756;-87
2022/03/30 13:24:16;;;;;;;;;50.67;44.00;;;;;16.35;100.00;99686.28;5000349;28;44859;-88
2022/03/30 13:26:44;;;;;;;;;58.67;47.67;;;;;15.92;100.00;99686.34;5016765;28;45344;-88
2022/03/30 13:29:12;;;;;;;;;60.33;45.33;;;;;15.53;100.00;99679.81;5014612;28;44786;-87
2022/03/30 13:31:43;;;;;;;;;50.00;40.67;;;;;15.50;100.00;99675.59;5000288;28;44798;-87
2022/03/30 13:34:09;;;;;;;;;57.33;46.00;;;;;15.48;100.00;99674.09;5032043;28;44894;-89
2022/03/30 13:36:35;;;;;;;;;53.00;42.33;;;;;15.36;100.00;99665.50;5025541;28;45183;-89
2022/03/30 13:39:03;;;;;;;;;57.67;44.67;;;;;15.23;100.00;99676.66;4992431;28;44695;-90
2022/03/30 13:41:29;;;;;;;;;60.33;47.33;;;;;15.11;100.00;99670.72;5007286;28;44681;-89
2022/03/30 13:43:55;;;;;;;;;62.33;48.33;;;;;15.08;100.00;99659.50;5014720;28;44997;-90
2022/03/30 13:46:44;;;;;;;;;70.33;53.67;;;;;14.81;100.00;99657.81;5019222;28;45229;-89
2022/03/30 13:49:09;;;;;;;;;63.67;46.33;;;;;14.66;100.00;99665.56;5011730;28;44753;-89
2022/03/30 13:51:37;;;;;;;;;68.00;52.67;;;;;14.58;100.00;99657.47;5015448;28;44652;-89